Pavlovskij Posad, Russia
Current Conditions -  °F | °C
As of 6:00 AM on Friday 19 Dec 2014 (Local Time) from UUDD Reporting Station
Overcast Overcast  
Wind Chill: 28°   Ceiling: 800
Heat Index: 32°   Visibility: 5mi
Dew Point: 30°   Wind: 4mph
Humidity: 93%   Direction: 210°SSW
Pressure: 29.77"   Gusts: NA
Location:  55.78°N, 38.65°E
Report Text: UUDD 190300Z 21002MPS 8000 OVC008 00/M01 Q1008 64290095 NOSIG
Loading
Personal Weather Stations






























Interactive Weather Map New forecast layout! Learn more

10-Day Weather Forecast

Advertisements
Track Severe Weather on mobile